Allen, Texas
Current Conditions -  °F | °C
As of 8:29 AM on Thursday 18 Dec 2014 (Local Time) from KTKI Reporting Station
Haze Haze  
Wind Chill: 39°   Ceiling: 300
Heat Index: 42°   Visibility: 2.5mi
Dew Point: 41°   Wind: 5mph
Humidity: 96%   Direction: 100°E
Pressure: 30.16"   Gusts: NA
Location:  33.1°N, 96.67°W
Report Text: KTKI 181429Z 10004KT 2 1/2SM BR OVC003 06/05 A3016 RMK AO2 T00560050
Loading
Personal Weather Stations






























Interactive Weather Map New forecast layout! Learn more

10-Day Weather Forecast

Advertisements
Track Severe Weather on mobile